sensor_id;sensor_type;location;lat;lon;timestamp;P1;durP1;ratioP1;P2;durP2;ratioP2
57401;SDS011;43226;51.110;6.998;2023-05-07T00:00:50;3.03;;;2.03;;
57401;SDS011;43226;51.110;6.998;2023-05-07T00:03:17;2.23;;;1.97;;
57401;SDS011;43226;51.110;6.998;2023-05-07T00:05:43;5.93;;;2.63;;
57401;SDS011;43226;51.110;6.998;2023-05-07T00:08:08;2.73;;;2.13;;
57401;SDS011;43226;51.110;6.998;2023-05-07T00:10:33;2.47;;;2.27;;
57401;SDS011;43226;51.110;6.998;2023-05-07T00:12:58;6.43;;;2.17;;
57401;SDS011;43226;51.110;6.998;2023-05-07T00:15:23;2.20;;;2.03;;
57401;SDS011;43226;51.110;6.998;2023-05-07T00:17:49;3.03;;;2.73;;
57401;SDS011;43226;51.110;6.998;2023-05-07T00:20:14;2.33;;;2.13;;
57401;SDS011;43226;51.110;6.998;2023-05-07T00:22:39;15.23;;;2.97;;
57401;SDS011;43226;51.110;6.998;2023-05-07T00:25:05;3.70;;;2.80;;
57401;SDS011;43226;51.110;6.998;2023-05-07T00:27:30;2.67;;;2.47;;
57401;SDS011;43226;51.110;6.998;2023-05-07T00:29:55;2.63;;;2.40;;
57401;SDS011;43226;51.110;6.998;2023-05-07T00:32:20;2.90;;;2.60;;
57401;SDS011;43226;51.110;6.998;2023-05-07T00:34:46;2.57;;;2.20;;
57401;SDS011;43226;51.110;6.998;2023-05-07T00:37:11;9.63;;;2.70;;
57401;SDS011;43226;51.110;6.998;2023-05-07T00:39:36;2.83;;;2.63;;
57401;SDS011;43226;51.110;6.998;2023-05-07T00:42:02;2.80;;;2.60;;
57401;SDS011;43226;51.110;6.998;2023-05-07T00:44:27;2.70;;;2.50;;
57401;SDS011;43226;51.110;6.998;2023-05-07T00:46:53;2.40;;;2.20;;
57401;SDS011;43226;51.110;6.998;2023-05-07T00:49:18;2.57;;;2.00;;
57401;SDS011;43226;51.110;6.998;2023-05-07T00:51:44;3.47;;;2.00;;
57401;SDS011;43226;51.110;6.998;2023-05-07T00:54:09;4.60;;;2.50;;
57401;SDS011;43226;51.110;6.998;2023-05-07T00:56:36;3.20;;;2.40;;
57401;SDS011;43226;51.110;6.998;2023-05-07T00:59:01;2.50;;;1.97;;
57401;SDS011;43226;51.110;6.998;2023-05-07T01:01:26;2.07;;;1.93;;
57401;SDS011;43226;51.110;6.998;2023-05-07T01:03:52;2.77;;;2.10;;
57401;SDS011;43226;51.110;6.998;2023-05-07T01:06:17;3.17;;;2.00;;
57401;SDS011;43226;51.110;6.998;2023-05-07T01:08:43;2.23;;;2.07;;
57401;SDS011;43226;51.110;6.998;2023-05-07T01:11:08;2.50;;;2.30;;
57401;SDS011;43226;51.110;6.998;2023-05-07T01:13:35;3.30;;;2.10;;
57401;SDS011;43226;51.110;6.998;2023-05-07T01:16:00;2.27;;;2.03;;
57401;SDS011;43226;51.110;6.998;2023-05-07T01:18:25;3.43;;;2.00;;
57401;SDS011;43226;51.110;6.998;2023-05-07T01:20:51;1.83;;;1.67;;
57401;SDS011;43226;51.110;6.998;2023-05-07T01:23:16;1.93;;;1.77;;
57401;SDS011;43226;51.110;6.998;2023-05-07T01:25:42;2.10;;;1.90;;
57401;SDS011;43226;51.110;6.998;2023-05-07T01:28:07;3.13;;;2.10;;
57401;SDS011;43226;51.110;6.998;2023-05-07T01:30:32;2.10;;;1.97;;
57401;SDS011;43226;51.110;6.998;2023-05-07T01:33:00;2.80;;;2.10;;
57401;SDS011;43226;51.110;6.998;2023-05-07T01:35:29;2.57;;;2.37;;
57401;SDS011;43226;51.110;6.998;2023-05-07T01:37:55;2.83;;;2.13;;
57401;SDS011;43226;51.110;6.998;2023-05-07T01:40:20;2.43;;;1.97;;
57401;SDS011;43226;51.110;6.998;2023-05-07T01:42:45;6.37;;;2.07;;
57401;SDS011;43226;51.110;6.998;2023-05-07T01:45:11;2.53;;;1.80;;
57401;SDS011;43226;51.110;6.998;2023-05-07T01:47:37;2.17;;;1.80;;
57401;SDS011;43226;51.110;6.998;2023-05-07T01:50:03;2.33;;;2.13;;
57401;SDS011;43226;51.110;6.998;2023-05-07T01:52:28;3.53;;;2.40;;
57401;SDS011;43226;51.110;6.998;2023-05-07T01:54:53;6.00;;;2.33;;
57401;SDS011;43226;51.110;6.998;2023-05-07T01:57:19;4.07;;;1.60;;
57401;SDS011;43226;51.110;6.998;2023-05-07T01:59:44;3.80;;;1.83;;
57401;SDS011;43226;51.110;6.998;2023-05-07T02:02:09;1.83;;;1.70;;
57401;SDS011;43226;51.110;6.998;2023-05-07T02:04:34;3.73;;;1.70;;
57401;SDS011;43226;51.110;6.998;2023-05-07T02:07:00;2.27;;;1.80;;
57401;SDS011;43226;51.110;6.998;2023-05-07T02:09:25;5.13;;;2.17;;
57401;SDS011;43226;51.110;6.998;2023-05-07T02:11:50;1.77;;;1.67;;
57401;SDS011;43226;51.110;6.998;2023-05-07T02:14:15;1.33;;;1.23;;
57401;SDS011;43226;51.110;6.998;2023-05-07T02:16:41;1.80;;;1.70;;
57401;SDS011;43226;51.110;6.998;2023-05-07T02:19:06;1.70;;;1.60;;
57401;SDS011;43226;51.110;6.998;2023-05-07T02:21:31;2.37;;;1.60;;
57401;SDS011;43226;51.110;6.998;2023-05-07T02:23:56;3.93;;;1.90;;
57401;SDS011;43226;51.110;6.998;2023-05-07T02:26:21;2.50;;;2.13;;
57401;SDS011;43226;51.110;6.998;2023-05-07T02:28:47;2.30;;;1.90;;
57401;SDS011;43226;51.110;6.998;2023-05-07T02:31:12;1.73;;;1.53;;
57401;SDS011;43226;51.110;6.998;2023-05-07T02:33:37;1.90;;;1.67;;
57401;SDS011;43226;51.110;6.998;2023-05-07T02:36:06;3.53;;;1.77;;
57401;SDS011;43226;51.110;6.998;2023-05-07T02:38:32;2.03;;;1.60;;
57401;SDS011;43226;51.110;6.998;2023-05-07T02:40:57;5.40;;;2.17;;
57401;SDS011;43226;51.110;6.998;2023-05-07T02:43:22;2.90;;;1.57;;
57401;SDS011;43226;51.110;6.998;2023-05-07T02:45:47;1.97;;;1.77;;
57401;SDS011;43226;51.110;6.998;2023-05-07T02:48:12;1.70;;;1.47;;
57401;SDS011;43226;51.110;6.998;2023-05-07T02:50:37;2.15;;;1.80;;
57401;SDS011;43226;51.110;6.998;2023-05-07T02:53:03;2.30;;;1.87;;
57401;SDS011;43226;51.110;6.998;2023-05-07T02:55:28;3.47;;;2.00;;
57401;SDS011;43226;51.110;6.998;2023-05-07T02:57:53;3.03;;;1.77;;
57401;SDS011;43226;51.110;6.998;2023-05-07T03:00:19;1.93;;;1.70;;
57401;SDS011;43226;51.110;6.998;2023-05-07T03:02:44;4.10;;;1.60;;
57401;SDS011;43226;51.110;6.998;2023-05-07T03:05:10;2.47;;;2.10;;
57401;SDS011;43226;51.110;6.998;2023-05-07T03:07:36;3.90;;;2.30;;
57401;SDS011;43226;51.110;6.998;2023-05-07T03:10:01;3.20;;;2.40;;
57401;SDS011;43226;51.110;6.998;2023-05-07T03:12:26;2.70;;;2.00;;
57401;SDS011;43226;51.110;6.998;2023-05-07T03:14:51;2.50;;;2.17;;
57401;SDS011;43226;51.110;6.998;2023-05-07T03:17:16;2.23;;;2.03;;
57401;SDS011;43226;51.110;6.998;2023-05-07T03:19:42;1.97;;;1.87;;
57401;SDS011;43226;51.110;6.998;2023-05-07T03:22:07;2.17;;;1.97;;
57401;SDS011;43226;51.110;6.998;2023-05-07T03:24:32;2.80;;;2.30;;
57401;SDS011;43226;51.110;6.998;2023-05-07T03:26:57;2.97;;;1.77;;
57401;SDS011;43226;51.110;6.998;2023-05-07T03:29:23;2.70;;;1.93;;
57401;SDS011;43226;51.110;6.998;2023-05-07T03:31:48;1.83;;;1.70;;
57401;SDS011;43226;51.110;6.998;2023-05-07T03:34:13;4.90;;;3.30;;
57401;SDS011;43226;51.110;6.998;2023-05-07T03:36:38;5.93;;;2.17;;
57401;SDS011;43226;51.110;6.998;2023-05-07T03:39:03;2.20;;;2.00;;
57401;SDS011;43226;51.110;6.998;2023-05-07T03:41:29;3.70;;;2.10;;
57401;SDS011;43226;51.110;6.998;2023-05-07T03:43:54;2.57;;;2.20;;
57401;SDS011;43226;51.110;6.998;2023-05-07T03:46:19;2.20;;;2.10;;
57401;SDS011;43226;51.110;6.998;2023-05-07T03:48:45;2.00;;;1.90;;
57401;SDS011;43226;51.110;6.998;2023-05-07T03:51:10;2.30;;;2.10;;
57401;SDS011;43226;51.110;6.998;2023-05-07T03:53:35;2.47;;;2.27;;
57401;SDS011;43226;51.110;6.998;2023-05-07T03:56:00;6.33;;;2.13;;
57401;SDS011;43226;51.110;6.998;2023-05-07T03:58:25;2.20;;;2.00;;
57401;SDS011;43226;51.110;6.998;2023-05-07T04:00:51;2.77;;;2.50;;
57401;SDS011;43226;51.110;6.998;2023-05-07T04:03:16;2.30;;;2.10;;
57401;SDS011;43226;51.110;6.998;2023-05-07T04:05:41;5.30;;;2.03;;
57401;SDS011;43226;51.110;6.998;2023-05-07T04:08:07;11.13;;;2.30;;
57401;SDS011;43226;51.110;6.998;2023-05-07T04:10:32;2.57;;;2.30;;
57401;SDS011;43226;51.110;6.998;2023-05-07T04:12:57;6.03;;;2.30;;
57401;SDS011;43226;51.110;6.998;2023-05-07T04:15:23;1.93;;;1.60;;
57401;SDS011;43226;51.110;6.998;2023-05-07T04:17:48;2.13;;;1.93;;
57401;SDS011;43226;51.110;6.998;2023-05-07T04:20:16;2.20;;;2.00;;
57401;SDS011;43226;51.110;6.998;2023-05-07T04:22:41;8.10;;;2.23;;
57401;SDS011;43226;51.110;6.998;2023-05-07T04:25:07;3.60;;;2.77;;
57401;SDS011;43226;51.110;6.998;2023-05-07T04:27:34;2.57;;;1.97;;
57401;SDS011;43226;51.110;6.998;2023-05-07T04:29:59;2.63;;;2.43;;
57401;SDS011;43226;51.110;6.998;2023-05-07T04:32:25;3.27;;;2.00;;
57401;SDS011;43226;51.110;6.998;2023-05-07T04:34:50;3.10;;;1.70;;
57401;SDS011;43226;51.110;6.998;2023-05-07T04:37:16;2.07;;;1.97;;
57401;SDS011;43226;51.110;6.998;2023-05-07T04:39:41;4.00;;;1.80;;
57401;SDS011;43226;51.110;6.998;2023-05-07T04:42:06;2.60;;;1.70;;
57401;SDS011;43226;51.110;6.998;2023-05-07T04:44:33;2.43;;;2.23;;
57401;SDS011;43226;51.110;6.998;2023-05-07T04:46:59;1.70;;;1.57;;
57401;SDS011;43226;51.110;6.998;2023-05-07T04:49:24;2.13;;;2.00;;
57401;SDS011;43226;51.110;6.998;2023-05-07T04:51:49;4.20;;;1.97;;
57401;SDS011;43226;51.110;6.998;2023-05-07T04:54:15;2.30;;;1.90;;
57401;SDS011;43226;51.110;6.998;2023-05-07T04:56:40;2.30;;;2.00;;
57401;SDS011;43226;51.110;6.998;2023-05-07T04:59:05;1.77;;;1.67;;
57401;SDS011;43226;51.110;6.998;2023-05-07T05:01:30;12.37;;;1.93;;
57401;SDS011;43226;51.110;6.998;2023-05-07T05:03:55;2.53;;;2.00;;
57401;SDS011;43226;51.110;6.998;2023-05-07T05:06:21;2.67;;;1.70;;
57401;SDS011;43226;51.110;6.998;2023-05-07T05:08:46;2.73;;;1.73;;
57401;SDS011;43226;51.110;6.998;2023-05-07T05:11:11;2.50;;;2.10;;
57401;SDS011;43226;51.110;6.998;2023-05-07T05:13:36;3.53;;;1.70;;
57401;SDS011;43226;51.110;6.998;2023-05-07T05:16:01;2.10;;;1.90;;
57401;SDS011;43226;51.110;6.998;2023-05-07T05:18:26;1.70;;;1.50;;
57401;SDS011;43226;51.110;6.998;2023-05-07T05:20:52;2.40;;;1.50;;
57401;SDS011;43226;51.110;6.998;2023-05-07T05:23:17;2.20;;;2.00;;
57401;SDS011;43226;51.110;6.998;2023-05-07T05:25:42;2.30;;;1.43;;
57401;SDS011;43226;51.110;6.998;2023-05-07T05:28:07;4.17;;;1.53;;
57401;SDS011;43226;51.110;6.998;2023-05-07T05:30:32;1.83;;;1.40;;
57401;SDS011;43226;51.110;6.998;2023-05-07T05:32:57;2.50;;;1.97;;
57401;SDS011;43226;51.110;6.998;2023-05-07T05:35:23;2.37;;;1.60;;
57401;SDS011;43226;51.110;6.998;2023-05-07T05:37:48;1.70;;;1.60;;
57401;SDS011;43226;51.110;6.998;2023-05-07T05:40:13;4.50;;;1.63;;
57401;SDS011;43226;51.110;6.998;2023-05-07T05:42:38;1.40;;;1.30;;
57401;SDS011;43226;51.110;6.998;2023-05-07T05:45:04;2.07;;;1.37;;
57401;SDS011;43226;51.110;6.998;2023-05-07T05:47:29;1.37;;;1.27;;
57401;SDS011;43226;51.110;6.998;2023-05-07T05:49:54;2.63;;;1.80;;
57401;SDS011;43226;51.110;6.998;2023-05-07T05:52:19;2.63;;;1.57;;
57401;SDS011;43226;51.110;6.998;2023-05-07T05:54:45;1.70;;;1.60;;
57401;SDS011;43226;51.110;6.998;2023-05-07T05:57:10;1.30;;;1.20;;
57401;SDS011;43226;51.110;6.998;2023-05-07T05:59:35;1.47;;;1.37;;
57401;SDS011;43226;51.110;6.998;2023-05-07T06:02:00;3.57;;;1.27;;
57401;SDS011;43226;51.110;6.998;2023-05-07T06:04:25;1.63;;;1.53;;
57401;SDS011;43226;51.110;6.998;2023-05-07T06:06:51;3.47;;;1.70;;
57401;SDS011;43226;51.110;6.998;2023-05-07T06:09:16;2.90;;;1.60;;
57401;SDS011;43226;51.110;6.998;2023-05-07T06:11:41;1.60;;;1.50;;
57401;SDS011;43226;51.110;6.998;2023-05-07T06:14:06;1.87;;;1.47;;
57401;SDS011;43226;51.110;6.998;2023-05-07T06:16:31;3.83;;;1.70;;
57401;SDS011;43226;51.110;6.998;2023-05-07T06:18:57;2.60;;;1.80;;
57401;SDS011;43226;51.110;6.998;2023-05-07T06:21:22;4.03;;;1.40;;
57401;SDS011;43226;51.110;6.998;2023-05-07T06:23:47;1.92;;;1.50;;
57401;SDS011;43226;51.110;6.998;2023-05-07T06:26:12;3.03;;;1.50;;
57401;SDS011;43226;51.110;6.998;2023-05-07T06:28:37;1.77;;;1.67;;
57401;SDS011;43226;51.110;6.998;2023-05-07T06:31:12;2.10;;;1.50;;
57401;SDS011;43226;51.110;6.998;2023-05-07T06:33:37;3.10;;;1.50;;
57401;SDS011;43226;51.110;6.998;2023-05-07T06:36:03;1.70;;;1.30;;
57401;SDS011;43226;51.110;6.998;2023-05-07T06:38:28;1.93;;;1.73;;
57401;SDS011;43226;51.110;6.998;2023-05-07T06:40:53;1.60;;;1.50;;
57401;SDS011;43226;51.110;6.998;2023-05-07T06:43:20;1.70;;;1.60;;
57401;SDS011;43226;51.110;6.998;2023-05-07T06:45:45;4.60;;;1.40;;
57401;SDS011;43226;51.110;6.998;2023-05-07T06:48:11;1.40;;;1.30;;
57401;SDS011;43226;51.110;6.998;2023-05-07T06:50:36;1.70;;;1.60;;
57401;SDS011;43226;51.110;6.998;2023-05-07T06:53:01;1.47;;;1.37;;
57401;SDS011;43226;51.110;6.998;2023-05-07T06:55:26;1.83;;;1.60;;
57401;SDS011;43226;51.110;6.998;2023-05-07T06:57:52;6.83;;;1.70;;
57401;SDS011;43226;51.110;6.998;2023-05-07T07:00:17;1.47;;;1.30;;
57401;SDS011;43226;51.110;6.998;2023-05-07T07:02:42;7.43;;;1.70;;
57401;SDS011;43226;51.110;6.998;2023-05-07T07:05:08;3.50;;;1.60;;
57401;SDS011;43226;51.110;6.998;2023-05-07T07:07:33;3.23;;;1.83;;
57401;SDS011;43226;51.110;6.998;2023-05-07T07:09:58;1.60;;;1.50;;
57401;SDS011;43226;51.110;6.998;2023-05-07T07:12:24;4.40;;;1.67;;
57401;SDS011;43226;51.110;6.998;2023-05-07T07:14:50;1.87;;;1.63;;
57401;SDS011;43226;51.110;6.998;2023-05-07T07:17:16;2.10;;;1.37;;
57401;SDS011;43226;51.110;6.998;2023-05-07T07:19:41;3.23;;;1.70;;
57401;SDS011;43226;51.110;6.998;2023-05-07T07:22:06;1.90;;;1.67;;
57401;SDS011;43226;51.110;6.998;2023-05-07T07:24:31;1.97;;;1.70;;
57401;SDS011;43226;51.110;6.998;2023-05-07T07:26:56;2.93;;;1.87;;
57401;SDS011;43226;51.110;6.998;2023-05-07T07:29:22;2.73;;;2.17;;
57401;SDS011;43226;51.110;6.998;2023-05-07T07:31:48;2.83;;;1.63;;
57401;SDS011;43226;51.110;6.998;2023-05-07T07:34:14;2.20;;;1.87;;
57401;SDS011;43226;51.110;6.998;2023-05-07T07:36:39;2.60;;;1.50;;
57401;SDS011;43226;51.110;6.998;2023-05-07T07:39:04;1.50;;;1.40;;
57401;SDS011;43226;51.110;6.998;2023-05-07T07:41:29;2.40;;;1.40;;
57401;SDS011;43226;51.110;6.998;2023-05-07T07:43:54;1.50;;;1.40;;
57401;SDS011;43226;51.110;6.998;2023-05-07T07:46:19;2.67;;;1.60;;
57401;SDS011;43226;51.110;6.998;2023-05-07T07:48:45;2.03;;;1.88;;
57401;SDS011;43226;51.110;6.998;2023-05-07T07:51:10;1.70;;;1.40;;
57401;SDS011;43226;51.110;6.998;2023-05-07T07:53:35;2.27;;;1.50;;
57401;SDS011;43226;51.110;6.998;2023-05-07T07:56:00;1.40;;;1.20;;
57401;SDS011;43226;51.110;6.998;2023-05-07T07:58:25;2.20;;;1.40;;
57401;SDS011;43226;51.110;6.998;2023-05-07T08:00:51;1.30;;;1.17;;
57401;SDS011;43226;51.110;6.998;2023-05-07T08:03:16;2.60;;;1.50;;
57401;SDS011;43226;51.110;6.998;2023-05-07T08:05:41;1.93;;;1.40;;
57401;SDS011;43226;51.110;6.998;2023-05-07T08:08:06;1.80;;;1.23;;
57401;SDS011;43226;51.110;6.998;2023-05-07T08:10:32;1.20;;;1.10;;
57401;SDS011;43226;51.110;6.998;2023-05-07T08:12:59;1.50;;;1.40;;
57401;SDS011;43226;51.110;6.998;2023-05-07T08:15:24;1.27;;;1.17;;
57401;SDS011;43226;51.110;6.998;2023-05-07T08:17:50;2.97;;;1.40;;
57401;SDS011;43226;51.110;6.998;2023-05-07T08:20:15;2.07;;;1.43;;
57401;SDS011;43226;51.110;6.998;2023-05-07T08:22:40;2.87;;;1.63;;
57401;SDS011;43226;51.110;6.998;2023-05-07T08:25:05;1.70;;;1.60;;
57401;SDS011;43226;51.110;6.998;2023-05-07T08:27:31;1.30;;;1.20;;
57401;SDS011;43226;51.110;6.998;2023-05-07T08:29:56;1.30;;;1.13;;
57401;SDS011;43226;51.110;6.998;2023-05-07T08:32:21;1.73;;;1.63;;
57401;SDS011;43226;51.110;6.998;2023-05-07T08:34:47;1.73;;;1.33;;
57401;SDS011;43226;51.110;6.998;2023-05-07T08:37:12;3.10;;;1.67;;
57401;SDS011;43226;51.110;6.998;2023-05-07T08:39:37;3.80;;;1.77;;
57401;SDS011;43226;51.110;6.998;2023-05-07T08:42:02;1.40;;;1.30;;
57401;SDS011;43226;51.110;6.998;2023-05-07T08:44:29;1.80;;;1.60;;
57401;SDS011;43226;51.110;6.998;2023-05-07T08:46:57;1.50;;;1.40;;
57401;SDS011;43226;51.110;6.998;2023-05-07T08:49:23;2.33;;;1.70;;
57401;SDS011;43226;51.110;6.998;2023-05-07T08:51:48;1.80;;;1.40;;
57401;SDS011;43226;51.110;6.998;2023-05-07T08:54:15;1.67;;;1.57;;
57401;SDS011;43226;51.110;6.998;2023-05-07T08:56:41;1.30;;;1.20;;
57401;SDS011;43226;51.110;6.998;2023-05-07T08:59:06;1.50;;;1.30;;
57401;SDS011;43226;51.110;6.998;2023-05-07T09:01:31;2.60;;;1.20;;
57401;SDS011;43226;51.110;6.998;2023-05-07T09:03:56;1.90;;;1.70;;
57401;SDS011;43226;51.110;6.998;2023-05-07T09:06:22;1.50;;;1.40;;
57401;SDS011;43226;51.110;6.998;2023-05-07T09:08:51;1.53;;;1.37;;
57401;SDS011;43226;51.110;6.998;2023-05-07T09:11:16;1.40;;;1.23;;
57401;SDS011;43226;51.110;6.998;2023-05-07T09:13:44;2.10;;;1.60;;
57401;SDS011;43226;51.110;6.998;2023-05-07T09:16:13;1.70;;;1.60;;
57401;SDS011;43226;51.110;6.998;2023-05-07T09:18:42;3.27;;;1.40;;
57401;SDS011;43226;51.110;6.998;2023-05-07T09:21:09;1.50;;;1.40;;
57401;SDS011;43226;51.110;6.998;2023-05-07T09:23:34;3.00;;;1.60;;
57401;SDS011;43226;51.110;6.998;2023-05-07T09:26:00;6.30;;;1.87;;
57401;SDS011;43226;51.110;6.998;2023-05-07T09:28:25;2.17;;;1.43;;
57401;SDS011;43226;51.110;6.998;2023-05-07T09:30:50;1.60;;;1.40;;
57401;SDS011;43226;51.110;6.998;2023-05-07T09:33:15;4.10;;;1.57;;
57401;SDS011;43226;51.110;6.998;2023-05-07T09:35:42;1.40;;;1.13;;
57401;SDS011;43226;51.110;6.998;2023-05-07T09:38:07;2.70;;;1.60;;
57401;SDS011;43226;51.110;6.998;2023-05-07T09:40:32;1.87;;;1.20;;
57401;SDS011;43226;51.110;6.998;2023-05-07T09:43:08;2.40;;;1.63;;
57401;SDS011;43226;51.110;6.998;2023-05-07T09:45:33;1.87;;;1.60;;
57401;SDS011;43226;51.110;6.998;2023-05-07T09:47:58;2.87;;;1.20;;
57401;SDS011;43226;51.110;6.998;2023-05-07T09:50:28;2.60;;;2.40;;
57401;SDS011;43226;51.110;6.998;2023-05-07T09:52:53;1.47;;;1.37;;
57401;SDS011;43226;51.110;6.998;2023-05-07T09:55:19;2.37;;;1.70;;
57401;SDS011;43226;51.110;6.998;2023-05-07T09:57:45;2.60;;;1.40;;
57401;SDS011;43226;51.110;6.998;2023-05-07T10:00:10;3.73;;;1.47;;
57401;SDS011;43226;51.110;6.998;2023-05-07T10:02:37;1.40;;;1.30;;
57401;SDS011;43226;51.110;6.998;2023-05-07T10:05:04;1.97;;;1.50;;
57401;SDS011;43226;51.110;6.998;2023-05-07T10:07:30;1.63;;;1.37;;
57401;SDS011;43226;51.110;6.998;2023-05-07T10:09:55;2.03;;;1.40;;
57401;SDS011;43226;51.110;6.998;2023-05-07T10:12:21;1.67;;;1.40;;
57401;SDS011;43226;51.110;6.998;2023-05-07T10:14:46;1.50;;;1.30;;
57401;SDS011;43226;51.110;6.998;2023-05-07T10:17:13;2.60;;;1.80;;
57401;SDS011;43226;51.110;6.998;2023-05-07T10:19:38;1.40;;;1.20;;
57401;SDS011;43226;51.110;6.998;2023-05-07T10:22:05;1.57;;;1.47;;
57401;SDS011;43226;51.110;6.998;2023-05-07T10:24:31;5.50;;;1.10;;
57401;SDS011;43226;51.110;6.998;2023-05-07T10:26:59;1.37;;;1.27;;
57401;SDS011;43226;51.110;6.998;2023-05-07T10:34:38;1.40;;;1.30;;
57401;SDS011;43226;51.110;6.998;2023-05-07T10:37:05;1.47;;;1.37;;
57401;SDS011;43226;51.110;6.998;2023-05-07T10:39:30;4.20;;;1.27;;
57401;SDS011;43226;51.110;6.998;2023-05-07T10:41:56;1.57;;;1.30;;
57401;SDS011;43226;51.110;6.998;2023-05-07T10:44:28;1.33;;;1.23;;
57401;SDS011;43226;51.110;6.998;2023-05-07T10:47:06;1.90;;;1.27;;
57401;SDS011;43226;51.110;6.998;2023-05-07T10:49:31;1.93;;;1.50;;
57401;SDS011;43226;51.110;6.998;2023-05-07T10:52:15;1.63;;;1.43;;
57401;SDS011;43226;51.110;6.998;2023-05-07T10:54:41;2.47;;;1.10;;
57401;SDS011;43226;51.110;6.998;2023-05-07T10:57:40;1.20;;;1.10;;
57401;SDS011;43226;51.110;6.998;2023-05-07T11:00:00;1.33;;;1.23;;
57401;SDS011;43226;51.110;6.998;2023-05-07T11:05:20;1.27;;;1.17;;
57401;SDS011;43226;51.110;6.998;2023-05-07T11:07:59;1.40;;;1.30;;
57401;SDS011;43226;51.110;6.998;2023-05-07T11:13:08;1.20;;;1.10;;
57401;SDS011;43226;51.110;6.998;2023-05-07T11:15:43;2.70;;;1.30;;
57401;SDS011;43226;51.110;6.998;2023-05-07T11:18:09;2.30;;;1.43;;
57401;SDS011;43226;51.110;6.998;2023-05-07T11:20:43;1.53;;;1.30;;
57401;SDS011;43226;51.110;6.998;2023-05-07T11:25:57;1.40;;;1.20;;
57401;SDS011;43226;51.110;6.998;2023-05-07T11:28:23;1.23;;;1.13;;
57401;SDS011;43226;51.110;6.998;2023-05-07T11:30:48;1.10;;;1.00;;
57401;SDS011;43226;51.110;6.998;2023-05-07T11:33:16;1.40;;;1.30;;
57401;SDS011;43226;51.110;6.998;2023-05-07T11:35:41;3.43;;;1.17;;
57401;SDS011;43226;51.110;6.998;2023-05-07T11:38:07;1.20;;;1.10;;
57401;SDS011;43226;51.110;6.998;2023-05-07T11:40:32;2.03;;;1.37;;
57401;SDS011;43226;51.110;6.998;2023-05-07T11:42:57;1.40;;;1.30;;
57401;SDS011;43226;51.110;6.998;2023-05-07T11:45:23;1.70;;;1.43;;
57401;SDS011;43226;51.110;6.998;2023-05-07T11:47:50;1.33;;;1.23;;
57401;SDS011;43226;51.110;6.998;2023-05-07T11:50:15;1.40;;;1.30;;
57401;SDS011;43226;51.110;6.998;2023-05-07T11:52:49;1.87;;;1.40;;
57401;SDS011;43226;51.110;6.998;2023-05-07T11:55:15;1.27;;;1.17;;
57401;SDS011;43226;51.110;6.998;2023-05-07T11:57:42;1.80;;;1.70;;
57401;SDS011;43226;51.110;6.998;2023-05-07T12:00:08;1.43;;;1.13;;
57401;SDS011;43226;51.110;6.998;2023-05-07T12:02:34;2.40;;;1.23;;
57401;SDS011;43226;51.110;6.998;2023-05-07T12:05:00;1.30;;;1.20;;
57401;SDS011;43226;51.110;6.998;2023-05-07T12:07:25;1.23;;;1.13;;
57401;SDS011;43226;51.110;6.998;2023-05-07T12:09:50;1.30;;;1.20;;
57401;SDS011;43226;51.110;6.998;2023-05-07T12:12:15;3.30;;;1.50;;
57401;SDS011;43226;51.110;6.998;2023-05-07T12:14:42;1.13;;;1.03;;
57401;SDS011;43226;51.110;6.998;2023-05-07T12:17:08;1.53;;;1.43;;
57401;SDS011;43226;51.110;6.998;2023-05-07T12:19:34;1.47;;;1.20;;
57401;SDS011;43226;51.110;6.998;2023-05-07T12:22:01;1.33;;;1.20;;
57401;SDS011;43226;51.110;6.998;2023-05-07T12:24:27;1.40;;;1.30;;
57401;SDS011;43226;51.110;6.998;2023-05-07T12:26:52;1.50;;;1.40;;
57401;SDS011;43226;51.110;6.998;2023-05-07T12:29:20;1.27;;;1.17;;
57401;SDS011;43226;51.110;6.998;2023-05-07T12:31:49;1.50;;;1.20;;
57401;SDS011;43226;51.110;6.998;2023-05-07T12:34:14;3.90;;;1.17;;
57401;SDS011;43226;51.110;6.998;2023-05-07T12:36:40;1.30;;;1.20;;
57401;SDS011;43226;51.110;6.998;2023-05-07T12:39:08;1.63;;;1.30;;
57401;SDS011;43226;51.110;6.998;2023-05-07T12:41:53;1.20;;;1.10;;
57401;SDS011;43226;51.110;6.998;2023-05-07T12:44:19;1.20;;;1.07;;
57401;SDS011;43226;51.110;6.998;2023-05-07T12:46:46;1.50;;;1.30;;
57401;SDS011;43226;51.110;6.998;2023-05-07T12:49:11;2.23;;;1.20;;
57401;SDS011;43226;51.110;6.998;2023-05-07T12:51:37;1.30;;;1.20;;
57401;SDS011;43226;51.110;6.998;2023-05-07T12:54:02;2.20;;;1.37;;
57401;SDS011;43226;51.110;6.998;2023-05-07T12:56:30;1.40;;;1.30;;
57401;SDS011;43226;51.110;6.998;2023-05-07T12:58:57;1.53;;;1.30;;
57401;SDS011;43226;51.110;6.998;2023-05-07T13:01:22;2.23;;;1.67;;
57401;SDS011;43226;51.110;6.998;2023-05-07T13:03:53;1.50;;;1.00;;
57401;SDS011;43226;51.110;6.998;2023-05-07T13:06:18;2.03;;;1.53;;
57401;SDS011;43226;51.110;6.998;2023-05-07T13:08:43;2.37;;;1.20;;
57401;SDS011;43226;51.110;6.998;2023-05-07T13:11:09;1.43;;;1.33;;
57401;SDS011;43226;51.110;6.998;2023-05-07T13:13:35;1.60;;;1.30;;
57401;SDS011;43226;51.110;6.998;2023-05-07T13:16:01;1.10;;;1.00;;
57401;SDS011;43226;51.110;6.998;2023-05-07T13:18:26;1.83;;;1.47;;
57401;SDS011;43226;51.110;6.998;2023-05-07T13:20:52;3.00;;;1.60;;
57401;SDS011;43226;51.110;6.998;2023-05-07T13:23:18;1.43;;;1.30;;
57401;SDS011;43226;51.110;6.998;2023-05-07T13:25:43;1.50;;;1.40;;
57401;SDS011;43226;51.110;6.998;2023-05-07T13:28:08;1.33;;;1.23;;
57401;SDS011;43226;51.110;6.998;2023-05-07T13:30:33;1.10;;;1.00;;
57401;SDS011;43226;51.110;6.998;2023-05-07T13:32:58;1.47;;;1.37;;
57401;SDS011;43226;51.110;6.998;2023-05-07T13:35:24;1.73;;;1.63;;
57401;SDS011;43226;51.110;6.998;2023-05-07T13:37:49;2.63;;;1.37;;
57401;SDS011;43226;51.110;6.998;2023-05-07T13:40:15;3.77;;;2.10;;
57401;SDS011;43226;51.110;6.998;2023-05-07T13:42:40;1.67;;;1.50;;
57401;SDS011;43226;51.110;6.998;2023-05-07T13:45:06;6.83;;;2.13;;
57401;SDS011;43226;51.110;6.998;2023-05-07T13:47:31;12.07;;;2.20;;
57401;SDS011;43226;51.110;6.998;2023-05-07T13:49:56;2.97;;;2.63;;
57401;SDS011;43226;51.110;6.998;2023-05-07T13:52:22;8.23;;;2.23;;
57401;SDS011;43226;51.110;6.998;2023-05-07T13:54:47;2.67;;;2.00;;
57401;SDS011;43226;51.110;6.998;2023-05-07T13:57:12;5.20;;;2.10;;
57401;SDS011;43226;51.110;6.998;2023-05-07T13:59:37;2.17;;;1.97;;
57401;SDS011;43226;51.110;6.998;2023-05-07T14:02:02;3.77;;;2.10;;
57401;SDS011;43226;51.110;6.998;2023-05-07T14:04:28;2.47;;;1.80;;
57401;SDS011;43226;51.110;6.998;2023-05-07T14:06:53;2.03;;;1.80;;
57401;SDS011;43226;51.110;6.998;2023-05-07T14:09:18;1.93;;;1.73;;
57401;SDS011;43226;51.110;6.998;2023-05-07T14:11:43;1.80;;;1.53;;
57401;SDS011;43226;51.110;6.998;2023-05-07T14:14:12;1.70;;;1.60;;
57401;SDS011;43226;51.110;6.998;2023-05-07T14:16:37;1.50;;;1.40;;
57401;SDS011;43226;51.110;6.998;2023-05-07T14:19:02;2.30;;;1.80;;
57401;SDS011;43226;51.110;6.998;2023-05-07T14:21:28;1.73;;;1.63;;
57401;SDS011;43226;51.110;6.998;2023-05-07T14:23:53;1.43;;;1.33;;
57401;SDS011;43226;51.110;6.998;2023-05-07T14:26:18;1.67;;;1.50;;
57401;SDS011;43226;51.110;6.998;2023-05-07T14:28:44;1.90;;;1.47;;
57401;SDS011;43226;51.110;6.998;2023-05-07T14:31:11;10.77;;;2.20;;
57401;SDS011;43226;51.110;6.998;2023-05-07T14:33:36;2.40;;;2.20;;
57401;SDS011;43226;51.110;6.998;2023-05-07T14:36:01;4.78;;;2.75;;
57401;SDS011;43226;51.110;6.998;2023-05-07T14:38:27;2.80;;;2.47;;
57401;SDS011;43226;51.110;6.998;2023-05-07T14:40:52;5.93;;;2.73;;
57401;SDS011;43226;51.110;6.998;2023-05-07T14:43:20;3.47;;;3.10;;
57401;SDS011;43226;51.110;6.998;2023-05-07T14:45:45;5.57;;;2.90;;
57401;SDS011;43226;51.110;6.998;2023-05-07T14:48:10;4.32;;;2.30;;
57401;SDS011;43226;51.110;6.998;2023-05-07T14:50:39;3.53;;;2.10;;
57401;SDS011;43226;51.110;6.998;2023-05-07T14:53:05;2.73;;;2.30;;